Pagrindinis puslapis
METAR-TAF:

METAR-TAF

Oro uostai :

Brevig Mission, Aliaska, Jungtinės Amerikos Valstijos

platuma: 65-19-53N, ilguma: 166-27-57W, Aukštis: 11 m

Dabartinis oras

Ataskaita buvo paskelbta 37 minutes, ne 07:56 UTC
Vėjas 21 kt iš Šiaurės/Šiaurės Rytų
Temperatūra 8°C
Drėgmė 66%
Slėgis 998 hPa
Matomumas: 16.1 km
Su prošvaistėmis ne aukštis 8000 ft
Apsiniaukę ne aukštis 10000 ft

METAR: PFKT 010756Z AUTO 03021KT 10SM BKN080 OVC100 08/02 A2946 RMK AO2 SLP977 T00830017

Laikas: 00:33 (08:33 UTC)


TAF: trūkstamas

Orai ataskaitas ir orų prognozės (METAR, TAF).

turimą stotys yra geltonos ir raudonos taškus žemėlapyje.

Perkelti pele per norėdami pamatyti stoties vardą.

Tada spustelėkite, norėdami matyti oro stebėjimo ir prognozės.

Norėdami pakeisti žemėlapį: spustelėkite ant žalios mygtukų su juodo kryžiaus žemyn,; žalią mygtuką su brūkšneliu, jei norite nutolinti; arba žalių rodyklių gretimoms žemėlapius.


METAR-TAF: